sensor_id;sensor_type;location;lat;lon;timestamp;pressure;altitude;pressure_sealevel;temperature;humidity
64078;BME280;51039;49.696;10.808;2022-08-21T00:01:05;98420.09;;;16.50;100.00
64078;BME280;51039;49.696;10.808;2022-08-21T00:03:34;98416.09;;;16.53;100.00
64078;BME280;51039;49.696;10.808;2022-08-21T00:06:00;98414.25;;;16.53;100.00
64078;BME280;51039;49.696;10.808;2022-08-21T00:08:25;98406.47;;;16.52;100.00
64078;BME280;51039;49.696;10.808;2022-08-21T00:10:50;98395.28;;;16.55;100.00
64078;BME280;51039;49.696;10.808;2022-08-21T00:13:16;98405.66;;;16.51;100.00
64078;BME280;51039;49.696;10.808;2022-08-21T00:15:43;98402.66;;;16.47;100.00
64078;BME280;51039;49.696;10.808;2022-08-21T00:18:09;98395.13;;;16.44;100.00
64078;BME280;51039;49.696;10.808;2022-08-21T00:20:35;98399.66;;;16.44;100.00
64078;BME280;51039;49.696;10.808;2022-08-21T00:23:01;98403.72;;;16.46;100.00
64078;BME280;51039;49.696;10.808;2022-08-21T00:25:27;98397.78;;;16.44;100.00
64078;BME280;51039;49.696;10.808;2022-08-21T00:27:53;98381.75;;;16.44;100.00
64078;BME280;51039;49.696;10.808;2022-08-21T00:30:21;98387.66;;;16.46;100.00
64078;BME280;51039;49.696;10.808;2022-08-21T00:32:48;98388.22;;;16.48;100.00
64078;BME280;51039;49.696;10.808;2022-08-21T00:35:15;98384.25;;;16.51;100.00
64078;BME280;51039;49.696;10.808;2022-08-21T00:37:43;98383.06;;;16.42;100.00
64078;BME280;51039;49.696;10.808;2022-08-21T00:40:10;98386.09;;;16.34;100.00
64078;BME280;51039;49.696;10.808;2022-08-21T00:42:39;98386.00;;;16.28;100.00
64078;BME280;51039;49.696;10.808;2022-08-21T00:45:05;98376.84;;;16.24;100.00
64078;BME280;51039;49.696;10.808;2022-08-21T00:47:31;98381.06;;;16.08;100.00
64078;BME280;51039;49.696;10.808;2022-08-21T00:49:57;98377.16;;;15.99;100.00
64078;BME280;51039;49.696;10.808;2022-08-21T00:52:24;98377.97;;;16.00;100.00
64078;BME280;51039;49.696;10.808;2022-08-21T00:54:53;98375.78;;;15.97;100.00
64078;BME280;51039;49.696;10.808;2022-08-21T00:57:26;98371.81;;;15.99;100.00
64078;BME280;51039;49.696;10.808;2022-08-21T00:59:56;98371.16;;;15.92;100.00
64078;BME280;51039;49.696;10.808;2022-08-21T01:02:24;98372.69;;;15.88;100.00
64078;BME280;51039;49.696;10.808;2022-08-21T01:04:50;98376.84;;;15.84;100.00
64078;BME280;51039;49.696;10.808;2022-08-21T01:07:16;98380.97;;;15.75;100.00
64078;BME280;51039;49.696;10.808;2022-08-21T01:09:42;98382.91;;;15.67;100.00
64078;BME280;51039;49.696;10.808;2022-08-21T01:12:08;98382.31;;;15.65;100.00
64078;BME280;51039;49.696;10.808;2022-08-21T01:14:34;98381.88;;;15.68;100.00
64078;BME280;51039;49.696;10.808;2022-08-21T01:17:00;98382.44;;;15.70;100.00
64078;BME280;51039;49.696;10.808;2022-08-21T01:19:28;98381.31;;;15.78;100.00
64078;BME280;51039;49.696;10.808;2022-08-21T01:21:53;98383.94;;;15.90;100.00
64078;BME280;51039;49.696;10.808;2022-08-21T01:24:19;98383.94;;;15.90;100.00
64078;BME280;51039;49.696;10.808;2022-08-21T01:26:45;98376.16;;;15.88;100.00
64078;BME280;51039;49.696;10.808;2022-08-21T01:29:16;98385.53;;;15.91;100.00
64078;BME280;51039;49.696;10.808;2022-08-21T01:32:02;98379.25;;;15.97;100.00
64078;BME280;51039;49.696;10.808;2022-08-21T01:34:29;98378.69;;;15.95;100.00
64078;BME280;51039;49.696;10.808;2022-08-21T01:36:55;98382.88;;;15.91;100.00
64078;BME280;51039;49.696;10.808;2022-08-21T01:39:20;98380.78;;;15.93;100.00
64078;BME280;51039;49.696;10.808;2022-08-21T01:41:46;98381.59;;;15.94;100.00
64078;BME280;51039;49.696;10.808;2022-08-21T01:44:11;98383.94;;;15.90;100.00
64078;BME280;51039;49.696;10.808;2022-08-21T01:46:36;98375.47;;;15.81;100.00
64078;BME280;51039;49.696;10.808;2022-08-21T01:49:03;98374.44;;;15.82;100.00
64078;BME280;51039;49.696;10.808;2022-08-21T01:51:29;98376.50;;;15.92;100.00
64078;BME280;51039;49.696;10.808;2022-08-21T01:53:54;98376.50;;;15.92;100.00
64078;BME280;51039;49.696;10.808;2022-08-21T01:56:20;98382.50;;;15.99;100.00
64078;BME280;51039;49.696;10.808;2022-08-21T01:58:46;98388.66;;;16.00;100.00
64078;BME280;51039;49.696;10.808;2022-08-21T02:01:12;98381.47;;;16.00;100.00
64078;BME280;51039;49.696;10.808;2022-08-21T02:03:38;98388.31;;;15.96;100.00
64078;BME280;51039;49.696;10.808;2022-08-21T02:06:04;98384.34;;;15.99;100.00
64078;BME280;51039;49.696;10.808;2022-08-21T02:08:31;98387.38;;;16.02;100.00
64078;BME280;51039;49.696;10.808;2022-08-21T02:10:58;98383.41;;;16.05;100.00
64078;BME280;51039;49.696;10.808;2022-08-21T02:13:24;98378.16;;;16.10;100.00
64078;BME280;51039;49.696;10.808;2022-08-21T02:15:51;98380.38;;;16.13;100.00
64078;BME280;51039;49.696;10.808;2022-08-21T02:18:16;98379.31;;;16.14;100.00
64078;BME280;51039;49.696;10.808;2022-08-21T02:20:43;98375.84;;;16.14;100.00
64078;BME280;51039;49.696;10.808;2022-08-21T02:23:11;98382.78;;;16.15;100.00
64078;BME280;51039;49.696;10.808;2022-08-21T02:25:38;98368.06;;;16.12;100.00
64078;BME280;51039;49.696;10.808;2022-08-21T02:28:05;98374.13;;;16.07;100.00
64078;BME280;51039;49.696;10.808;2022-08-21T02:30:33;98371.28;;;16.14;100.00
64078;BME280;51039;49.696;10.808;2022-08-21T02:33:03;98372.78;;;16.22;100.00
64078;BME280;51039;49.696;10.808;2022-08-21T02:35:29;98378.63;;;16.19;100.00
64078;BME280;51039;49.696;10.808;2022-08-21T02:37:55;98373.75;;;16.16;100.00
64078;BME280;51039;49.696;10.808;2022-08-21T02:40:26;98379.31;;;16.14;100.00
64078;BME280;51039;49.696;10.808;2022-08-21T02:42:53;98388.75;;;16.17;100.00
64078;BME280;51039;49.696;10.808;2022-08-21T02:45:19;98385.47;;;16.15;100.00
64078;BME280;51039;49.696;10.808;2022-08-21T02:47:58;98378.03;;;16.17;100.00
64078;BME280;51039;49.696;10.808;2022-08-21T02:50:27;98379.09;;;16.16;100.00
64078;BME280;51039;49.696;10.808;2022-08-21T02:52:57;98374.47;;;16.11;100.00
64078;BME280;51039;49.696;10.808;2022-08-21T02:55:23;98385.28;;;16.04;100.00
64078;BME280;51039;49.696;10.808;2022-08-21T02:57:51;98381.47;;;16.00;100.00
64078;BME280;51039;49.696;10.808;2022-08-21T03:00:17;98382.72;;;16.09;100.00
64078;BME280;51039;49.696;10.808;2022-08-21T03:02:45;98379.13;;;16.04;100.00
64078;BME280;51039;49.696;10.808;2022-08-21T03:05:12;98374.19;;;16.13;100.00
64078;BME280;51039;49.696;10.808;2022-08-21T03:07:38;98380.59;;;16.12;100.00
64078;BME280;51039;49.696;10.808;2022-08-21T03:10:04;98379.09;;;16.16;100.00
64078;BME280;51039;49.696;10.808;2022-08-21T03:12:31;98380.47;;;16.18;100.00
64078;BME280;51039;49.696;10.808;2022-08-21T03:14:56;98375.69;;;16.20;100.00
64078;BME280;51039;49.696;10.808;2022-08-21T03:17:22;98373.97;;;16.14;100.00
64078;BME280;51039;49.696;10.808;2022-08-21T03:19:49;98377.72;;;16.13;100.00
64078;BME280;51039;49.696;10.808;2022-08-21T03:22:14;98375.97;;;16.07;100.00
64078;BME280;51039;49.696;10.808;2022-08-21T03:24:39;98368.06;;;16.12;100.00
64078;BME280;51039;49.696;10.808;2022-08-21T03:27:05;98373.41;;;16.12;100.00
64078;BME280;51039;49.696;10.808;2022-08-21T03:29:30;98375.38;;;16.17;100.00
64078;BME280;51039;49.696;10.808;2022-08-21T03:31:55;98377.59;;;16.08;100.00
64078;BME280;51039;49.696;10.808;2022-08-21T03:34:21;98369.13;;;16.11;100.00
64078;BME280;51039;49.696;10.808;2022-08-21T03:36:46;98370.97;;;16.10;100.00
64078;BME280;51039;49.696;10.808;2022-08-21T03:39:13;98374.94;;;16.08;100.00
64078;BME280;51039;49.696;10.808;2022-08-21T03:41:39;98374.13;;;16.07;100.00
64078;BME280;51039;49.696;10.808;2022-08-21T03:44:04;98378.06;;;16.05;100.00
64078;BME280;51039;49.696;10.808;2022-08-21T03:46:30;98367.63;;;16.03;100.00
64078;BME280;51039;49.696;10.808;2022-08-21T03:48:55;98373.06;;;16.08;100.00
64078;BME280;51039;49.696;10.808;2022-08-21T03:51:20;98371.81;;;15.99;100.00
64078;BME280;51039;49.696;10.808;2022-08-21T03:53:46;98372.31;;;15.96;100.00
64078;BME280;51039;49.696;10.808;2022-08-21T03:56:11;98383.66;;;16.03;100.00
64078;BME280;51039;49.696;10.808;2022-08-21T03:58:36;98376.78;;;16.07;100.00
64078;BME280;51039;49.696;10.808;2022-08-21T04:01:04;98376.56;;;16.09;100.00
64078;BME280;51039;49.696;10.808;2022-08-21T04:03:31;98377.75;;;16.01;100.00
64078;BME280;51039;49.696;10.808;2022-08-21T04:05:56;98378.31;;;16.03;100.00
64078;BME280;51039;49.696;10.808;2022-08-21T04:08:22;98382.41;;;15.94;100.00
64078;BME280;51039;49.696;10.808;2022-08-21T04:10:50;98380.53;;;15.95;100.00
64078;BME280;51039;49.696;10.808;2022-08-21T04:13:18;98389.84;;;15.92;100.00
64078;BME280;51039;49.696;10.808;2022-08-21T04:15:44;98388.31;;;15.96;100.00
64078;BME280;51039;49.696;10.808;2022-08-21T04:18:09;98393.78;;;15.89;100.00
64078;BME280;51039;49.696;10.808;2022-08-21T04:20:35;98398.31;;;15.89;100.00
64078;BME280;51039;49.696;10.808;2022-08-21T04:23:01;98398.22;;;15.84;100.00
64078;BME280;51039;49.696;10.808;2022-08-21T04:25:27;98404.38;;;15.84;100.00
64078;BME280;51039;49.696;10.808;2022-08-21T04:27:52;98399.50;;;15.81;100.00
64078;BME280;51039;49.696;10.808;2022-08-21T04:30:18;98404.63;;;15.83;100.00
64078;BME280;51039;49.696;10.808;2022-08-21T04:32:45;98403.81;;;15.82;100.00
64078;BME280;51039;49.696;10.808;2022-08-21T04:35:13;98410.53;;;15.85;100.00
64078;BME280;51039;49.696;10.808;2022-08-21T04:37:38;98418.91;;;15.88;100.00
64078;BME280;51039;49.696;10.808;2022-08-21T04:40:04;98415.28;;;15.95;100.00
64078;BME280;51039;49.696;10.808;2022-08-21T04:42:31;98420.38;;;15.96;100.00
64078;BME280;51039;49.696;10.808;2022-08-21T04:44:57;98422.13;;;15.90;100.00
64078;BME280;51039;49.696;10.808;2022-08-21T04:47:22;98431.75;;;15.92;100.00
64078;BME280;51039;49.696;10.808;2022-08-21T04:49:48;98423.16;;;15.89;100.00
64078;BME280;51039;49.696;10.808;2022-08-21T04:52:15;98427.03;;;15.82;100.00
64078;BME280;51039;49.696;10.808;2022-08-21T04:54:43;98427.59;;;15.84;100.00
64078;BME280;51039;49.696;10.808;2022-08-21T04:57:11;98423.88;;;15.85;100.00
64078;BME280;51039;49.696;10.808;2022-08-21T04:59:42;98433.06;;;15.89;100.00
64078;BME280;51039;49.696;10.808;2022-08-21T05:02:10;98427.34;;;15.97;100.00
64078;BME280;51039;49.696;10.808;2022-08-21T05:04:39;98434.09;;;16.00;100.00
64078;BME280;51039;49.696;10.808;2022-08-21T05:07:10;98426.06;;;16.00;100.00
64078;BME280;51039;49.696;10.808;2022-08-21T05:09:40;98421.38;;;16.07;100.00
64078;BME280;51039;49.696;10.808;2022-08-21T05:12:06;98432.16;;;16.24;100.00
64078;BME280;51039;49.696;10.808;2022-08-21T05:14:31;98435.38;;;16.26;100.00
64078;BME280;51039;49.696;10.808;2022-08-21T05:16:57;98439.13;;;16.25;100.00
64078;BME280;51039;49.696;10.808;2022-08-21T05:19:23;98441.56;;;16.26;100.00
64078;BME280;51039;49.696;10.808;2022-08-21T05:21:49;98444.47;;;16.25;100.00
64078;BME280;51039;49.696;10.808;2022-08-21T05:24:14;98436.13;;;16.21;100.00
64078;BME280;51039;49.696;10.808;2022-08-21T05:26:40;98448.28;;;16.29;100.00
64078;BME280;51039;49.696;10.808;2022-08-21T05:29:06;98439.94;;;16.25;100.00
64078;BME280;51039;49.696;10.808;2022-08-21T05:31:31;98445.63;;;16.29;100.00
64078;BME280;51039;49.696;10.808;2022-08-21T05:33:57;98447.56;;;16.34;100.00
64078;BME280;51039;49.696;10.808;2022-08-21T05:36:22;98442.09;;;16.40;100.00
64078;BME280;51039;49.696;10.808;2022-08-21T05:38:48;98441.88;;;16.30;100.00
64078;BME280;51039;49.696;10.808;2022-08-21T05:41:13;98451.03;;;16.46;100.00
64078;BME280;51039;49.696;10.808;2022-08-21T05:43:38;98451.78;;;16.58;100.00
64078;BME280;51039;49.696;10.808;2022-08-21T05:46:04;98447.91;;;16.66;100.00
64078;BME280;51039;49.696;10.808;2022-08-21T05:48:31;98450.00;;;16.64;100.00
64078;BME280;51039;49.696;10.808;2022-08-21T05:50:57;98455.53;;;16.57;100.00
64078;BME280;51039;49.696;10.808;2022-08-21T05:53:28;98455.34;;;16.64;100.00
64078;BME280;51039;49.696;10.808;2022-08-21T05:55:53;98457.22;;;16.63;100.00
64078;BME280;51039;49.696;10.808;2022-08-21T05:58:20;98458.44;;;16.84;100.00
64078;BME280;51039;49.696;10.808;2022-08-21T06:00:48;98454.91;;;16.96;99.13
64078;BME280;51039;49.696;10.808;2022-08-21T06:03:15;98456.59;;;17.19;98.33
64078;BME280;51039;49.696;10.808;2022-08-21T06:05:43;98455.88;;;17.23;97.75
64078;BME280;51039;49.696;10.808;2022-08-21T06:08:08;98458.78;;;17.05;96.43
64078;BME280;51039;49.696;10.808;2022-08-21T06:10:34;98462.59;;;17.26;97.42
64078;BME280;51039;49.696;10.808;2022-08-21T06:12:59;98462.25;;;17.22;97.42
64078;BME280;51039;49.696;10.808;2022-08-21T06:15:25;98466.06;;;16.93;97.34
64078;BME280;51039;49.696;10.808;2022-08-21T06:17:51;98462.09;;;16.66;98.02
64078;BME280;51039;49.696;10.808;2022-08-21T06:20:18;98470.78;;;16.74;99.25
64078;BME280;51039;49.696;10.808;2022-08-21T06:22:43;98468.66;;;17.04;97.90
64078;BME280;51039;49.696;10.808;2022-08-21T06:25:08;98472.25;;;17.27;96.23
64078;BME280;51039;49.696;10.808;2022-08-21T06:27:34;98463.34;;;17.21;96.29
64078;BME280;51039;49.696;10.808;2022-08-21T06:29:59;98467.56;;;17.34;95.19
64078;BME280;51039;49.696;10.808;2022-08-21T06:32:24;98454.88;;;17.46;94.15
64078;BME280;51039;49.696;10.808;2022-08-21T06:34:50;98466.72;;;17.67;93.94
64078;BME280;51039;49.696;10.808;2022-08-21T06:37:16;98471.81;;;17.86;93.40
64078;BME280;51039;49.696;10.808;2022-08-21T06:39:41;98468.97;;;18.15;92.31
64078;BME280;51039;49.696;10.808;2022-08-21T06:42:06;98471.19;;;18.01;91.93
64078;BME280;51039;49.696;10.808;2022-08-21T06:44:38;98472.38;;;17.88;92.66
64078;BME280;51039;49.696;10.808;2022-08-21T06:47:03;98472.88;;;17.85;92.45
64078;BME280;51039;49.696;10.808;2022-08-21T06:49:28;98474.06;;;17.77;92.58
64078;BME280;51039;49.696;10.808;2022-08-21T06:51:54;98482.03;;;17.89;92.07
64078;BME280;51039;49.696;10.808;2022-08-21T06:54:19;98474.75;;;17.84;93.30
64078;BME280;51039;49.696;10.808;2022-08-21T06:56:44;98475.44;;;17.97;91.71
64078;BME280;51039;49.696;10.808;2022-08-21T06:59:10;98475.31;;;17.53;93.52
64078;BME280;51039;49.696;10.808;2022-08-21T07:01:35;98475.41;;;17.58;93.94
64078;BME280;51039;49.696;10.808;2022-08-21T07:04:01;98476.13;;;17.53;94.01
64078;BME280;51039;49.696;10.808;2022-08-21T07:06:26;98477.50;;;17.73;94.21
64078;BME280;51039;49.696;10.808;2022-08-21T07:08:52;98473.75;;;18.13;91.18
64078;BME280;51039;49.696;10.808;2022-08-21T07:11:19;98484.16;;;17.87;90.97
64078;BME280;51039;49.696;10.808;2022-08-21T07:13:47;98484.34;;;18.02;91.62
64078;BME280;51039;49.696;10.808;2022-08-21T07:16:13;98482.84;;;17.90;91.59
64078;BME280;51039;49.696;10.808;2022-08-21T07:18:39;98478.50;;;18.05;91.13
64078;BME280;51039;49.696;10.808;2022-08-21T07:21:05;98482.13;;;17.77;92.03
64078;BME280;51039;49.696;10.808;2022-08-21T07:23:32;98480.91;;;18.07;91.90
64078;BME280;51039;49.696;10.808;2022-08-21T07:26:01;98476.13;;;18.31;89.20
64078;BME280;51039;49.696;10.808;2022-08-21T07:28:27;98469.97;;;18.09;90.40
64078;BME280;51039;49.696;10.808;2022-08-21T07:30:54;98482.69;;;18.18;89.59
64078;BME280;51039;49.696;10.808;2022-08-21T07:33:21;98477.13;;;18.03;90.05
64078;BME280;51039;49.696;10.808;2022-08-21T07:35:48;98479.47;;;17.99;91.28
64078;BME280;51039;49.696;10.808;2022-08-21T07:38:13;98479.28;;;17.84;92.14
64078;BME280;51039;49.696;10.808;2022-08-21T07:40:38;98478.50;;;18.05;91.23
64078;BME280;51039;49.696;10.808;2022-08-21T07:43:04;98476.88;;;18.04;92.20
64078;BME280;51039;49.696;10.808;2022-08-21T07:45:29;98470.66;;;18.21;90.97
64078;BME280;51039;49.696;10.808;2022-08-21T07:47:54;98475.81;;;18.50;89.55
64078;BME280;51039;49.696;10.808;2022-08-21T07:50:20;98469.91;;;18.48;89.13
64078;BME280;51039;49.696;10.808;2022-08-21T07:52:45;98467.09;;;18.87;88.38
64078;BME280;51039;49.696;10.808;2022-08-21T07:55:12;98469.16;;;18.79;88.22
64078;BME280;51039;49.696;10.808;2022-08-21T07:57:40;98468.84;;;18.76;87.41
64078;BME280;51039;49.696;10.808;2022-08-21T08:00:07;98460.88;;;18.59;87.92
64078;BME280;51039;49.696;10.808;2022-08-21T08:02:34;98459.97;;;18.75;89.02
64078;BME280;51039;49.696;10.808;2022-08-21T08:05:02;98461.41;;;19.10;86.90
64078;BME280;51039;49.696;10.808;2022-08-21T08:07:29;98461.88;;;19.34;85.29
64078;BME280;51039;49.696;10.808;2022-08-21T08:09:55;98461.53;;;19.63;84.11
64078;BME280;51039;49.696;10.808;2022-08-21T08:12:20;98459.59;;;19.96;81.76
64078;BME280;51039;49.696;10.808;2022-08-21T08:14:46;98458.84;;;20.06;81.42
64078;BME280;51039;49.696;10.808;2022-08-21T08:17:11;98458.63;;;20.23;78.86
64078;BME280;51039;49.696;10.808;2022-08-21T08:19:38;98457.63;;;20.44;78.61
64078;BME280;51039;49.696;10.808;2022-08-21T08:22:12;98471.47;;;20.84;76.88
64078;BME280;51039;49.696;10.808;2022-08-21T08:24:38;98462.34;;;21.00;74.87
64078;BME280;51039;49.696;10.808;2022-08-21T08:27:04;98464.63;;;20.40;77.46
64078;BME280;51039;49.696;10.808;2022-08-21T08:29:30;98456.44;;;20.09;78.94
64078;BME280;51039;49.696;10.808;2022-08-21T08:31:55;98455.81;;;20.60;76.98
64078;BME280;51039;49.696;10.808;2022-08-21T08:34:21;98455.97;;;20.33;77.91
64078;BME280;51039;49.696;10.808;2022-08-21T08:36:47;98454.41;;;20.52;77.02
64078;BME280;51039;49.696;10.808;2022-08-21T08:39:13;98457.50;;;21.02;76.05
64078;BME280;51039;49.696;10.808;2022-08-21T08:41:38;98448.25;;;21.90;73.30
64078;BME280;51039;49.696;10.808;2022-08-21T08:44:06;98450.13;;;22.55;70.08
64078;BME280;51039;49.696;10.808;2022-08-21T08:46:37;98452.03;;;22.54;70.31
64078;BME280;51039;49.696;10.808;2022-08-21T08:49:17;98445.25;;;22.57;68.66
64078;BME280;51039;49.696;10.808;2022-08-21T08:54:17;98452.06;;;22.49;69.20
64078;BME280;51039;49.696;10.808;2022-08-21T08:56:50;98444.88;;;22.29;69.06
64078;BME280;51039;49.696;10.808;2022-08-21T08:59:26;98443.16;;;21.68;70.85
64078;BME280;51039;49.696;10.808;2022-08-21T09:01:54;98444.50;;;21.81;71.05
64078;BME280;51039;49.696;10.808;2022-08-21T09:04:23;98452.19;;;22.29;69.23
64078;BME280;51039;49.696;10.808;2022-08-21T09:09:38;98441.50;;;22.58;67.55
64078;BME280;51039;49.696;10.808;2022-08-21T09:12:41;98450.56;;;22.18;69.45
64078;BME280;51039;49.696;10.808;2022-08-21T09:26:26;98438.50;;;24.35;60.61
64078;BME280;51039;49.696;10.808;2022-08-21T09:28:56;98437.22;;;23.84;63.02
64078;BME280;51039;49.696;10.808;2022-08-21T09:31:27;98437.50;;;24.50;61.15
64078;BME280;51039;49.696;10.808;2022-08-21T09:34:22;98434.78;;;24.50;61.77
64078;BME280;51039;49.696;10.808;2022-08-21T09:36:51;98442.53;;;23.95;62.30
64078;BME280;51039;49.696;10.808;2022-08-21T09:39:24;98441.56;;;23.56;63.57
64078;BME280;51039;49.696;10.808;2022-08-21T09:41:58;98441.41;;;22.68;66.18
64078;BME280;51039;49.696;10.808;2022-08-21T09:44:30;98442.03;;;23.34;64.20
64078;BME280;51039;49.696;10.808;2022-08-21T09:46:57;98436.81;;;22.69;66.09
64078;BME280;51039;49.696;10.808;2022-08-21T09:49:27;98433.50;;;22.38;67.40
64078;BME280;51039;49.696;10.808;2022-08-21T09:51:56;98436.63;;;22.60;66.91
64078;BME280;51039;49.696;10.808;2022-08-21T09:54:34;98429.47;;;22.35;67.66
64078;BME280;51039;49.696;10.808;2022-08-21T09:59:53;98429.28;;;23.93;62.64
64078;BME280;51039;49.696;10.808;2022-08-21T10:02:33;98412.53;;;24.72;60.38
64078;BME280;51039;49.696;10.808;2022-08-21T10:05:01;98415.28;;;24.48;60.87
64078;BME280;51039;49.696;10.808;2022-08-21T10:07:47;98425.81;;;25.25;58.23
64078;BME280;51039;49.696;10.808;2022-08-21T10:10:23;98412.31;;;24.87;58.90
64078;BME280;51039;49.696;10.808;2022-08-21T10:13:09;98413.53;;;24.95;58.86
64078;BME280;51039;49.696;10.808;2022-08-21T10:18:42;98411.84;;;24.99;59.00
64078;BME280;51039;49.696;10.808;2022-08-21T10:24:04;98404.38;;;23.67;63.57
64078;BME280;51039;49.696;10.808;2022-08-21T10:30:15;98405.81;;;24.69;60.81
64078;BME280;51039;49.696;10.808;2022-08-21T10:37:48;98395.13;;;24.59;60.85
64078;BME280;51039;49.696;10.808;2022-08-21T10:45:50;98404.44;;;26.71;55.02
64078;BME280;51039;49.696;10.808;2022-08-21T10:48:46;98401.59;;;26.40;55.92
64078;BME280;51039;49.696;10.808;2022-08-21T10:51:41;98401.69;;;26.49;54.96
64078;BME280;51039;49.696;10.808;2022-08-21T10:57:06;98391.50;;;25.62;58.40
64078;BME280;51039;49.696;10.808;2022-08-21T10:59:42;98392.84;;;26.43;56.57
64078;BME280;51039;49.696;10.808;2022-08-21T11:02:15;98399.13;;;27.34;54.21
64078;BME280;51039;49.696;10.808;2022-08-21T11:07:27;98390.31;;;26.10;55.10
64078;BME280;51039;49.696;10.808;2022-08-21T11:09:57;98390.31;;;25.69;56.34
64078;BME280;51039;49.696;10.808;2022-08-21T11:12:41;98377.31;;;25.52;57.15
64078;BME280;51039;49.696;10.808;2022-08-21T11:17:49;98383.44;;;26.27;54.21
64078;BME280;51039;49.696;10.808;2022-08-21T11:29:13;98369.97;;;25.24;56.12
64078;BME280;51039;49.696;10.808;2022-08-21T11:31:56;98364.44;;;24.83;54.29
64078;BME280;51039;49.696;10.808;2022-08-21T11:43:09;98347.59;;;24.67;56.14
64078;BME280;51039;49.696;10.808;2022-08-21T11:45:39;98357.66;;;24.99;53.71
64078;BME280;51039;49.696;10.808;2022-08-21T11:50:55;98349.59;;;25.69;52.54
64078;BME280;51039;49.696;10.808;2022-08-21T11:56:11;98344.25;;;25.22;51.30
64078;BME280;51039;49.696;10.808;2022-08-21T11:58:51;98346.03;;;25.13;52.48
64078;BME280;51039;49.696;10.808;2022-08-21T12:01:22;98339.44;;;25.33;51.45
64078;BME280;51039;49.696;10.808;2022-08-21T12:04:01;98333.66;;;25.39;50.22
64078;BME280;51039;49.696;10.808;2022-08-21T12:06:35;98337.28;;;25.49;50.06
64078;BME280;51039;49.696;10.808;2022-08-21T12:09:09;98337.31;;;25.16;50.31
64078;BME280;51039;49.696;10.808;2022-08-21T12:14:45;98339.56;;;25.55;49.19
64078;BME280;51039;49.696;10.808;2022-08-21T12:17:19;98338.34;;;25.61;50.77
64078;BME280;51039;49.696;10.808;2022-08-21T12:20:00;98333.84;;;25.29;50.63
64078;BME280;51039;49.696;10.808;2022-08-21T12:22:39;98333.34;;;25.41;50.12
64078;BME280;51039;49.696;10.808;2022-08-21T12:25:07;98328.50;;;25.79;49.97
64078;BME280;51039;49.696;10.808;2022-08-21T12:27:46;98325.31;;;25.77;48.63
64078;BME280;51039;49.696;10.808;2022-08-21T12:30:23;98328.28;;;25.90;48.77
64078;BME280;51039;49.696;10.808;2022-08-21T12:32:56;98322.78;;;25.95;48.44
64078;BME280;51039;49.696;10.808;2022-08-21T12:35:25;98323.84;;;26.08;48.95
64078;BME280;51039;49.696;10.808;2022-08-21T12:37:57;98325.34;;;26.73;49.21
64078;BME280;51039;49.696;10.808;2022-08-21T12:40:41;98322.03;;;26.39;47.43
64078;BME280;51039;49.696;10.808;2022-08-21T12:43:16;98322.78;;;26.68;46.40
64078;BME280;51039;49.696;10.808;2022-08-21T12:45:48;98317.78;;;27.23;46.93
64078;BME280;51039;49.696;10.808;2022-08-21T12:53:33;98304.94;;;26.84;47.44
64078;BME280;51039;49.696;10.808;2022-08-21T12:56:08;98297.69;;;27.33;48.11
64078;BME280;51039;49.696;10.808;2022-08-21T12:58:35;98293.53;;;27.36;47.46
64078;BME280;51039;49.696;10.808;2022-08-21T13:01:05;98298.81;;;27.32;43.48
64078;BME280;51039;49.696;10.808;2022-08-21T13:03:37;98293.94;;;27.60;43.77
64078;BME280;51039;49.696;10.808;2022-08-21T13:06:05;98291.53;;;27.59;44.43
64078;BME280;51039;49.696;10.808;2022-08-21T13:08:32;98283.75;;;27.92;44.50
64078;BME280;51039;49.696;10.808;2022-08-21T13:11:02;98287.81;;;27.46;44.65
64078;BME280;51039;49.696;10.808;2022-08-21T13:13:30;98286.03;;;27.50;43.61
64078;BME280;51039;49.696;10.808;2022-08-21T13:15:56;98291.94;;;27.03;45.22
64078;BME280;51039;49.696;10.808;2022-08-21T13:18:25;98294.34;;;26.74;45.18
64078;BME280;51039;49.696;10.808;2022-08-21T13:21:02;98292.84;;;26.45;45.69
64078;BME280;51039;49.696;10.808;2022-08-21T13:23:35;98285.50;;;26.23;46.00
64078;BME280;51039;49.696;10.808;2022-08-21T13:26:00;98282.34;;;26.30;46.93
64078;BME280;51039;49.696;10.808;2022-08-21T13:28:34;98280.88;;;26.23;46.10
64078;BME280;51039;49.696;10.808;2022-08-21T13:31:02;98279.66;;;25.79;45.58
64078;BME280;51039;49.696;10.808;2022-08-21T13:33:33;98272.31;;;25.94;44.66
64078;BME280;51039;49.696;10.808;2022-08-21T13:38:25;98264.84;;;26.90;43.22
64078;BME280;51039;49.696;10.808;2022-08-21T13:40:55;98266.72;;;26.80;41.28
64078;BME280;51039;49.696;10.808;2022-08-21T13:43:25;98264.66;;;26.77;43.18
64078;BME280;51039;49.696;10.808;2022-08-21T13:45:54;98264.09;;;26.67;43.60
64078;BME280;51039;49.696;10.808;2022-08-21T13:48:21;98263.56;;;26.87;42.49
64078;BME280;51039;49.696;10.808;2022-08-21T13:50:50;98256.31;;;26.74;41.77
64078;BME280;51039;49.696;10.808;2022-08-21T13:53:21;98258.16;;;26.96;42.60
64078;BME280;51039;49.696;10.808;2022-08-21T13:56:20;98259.59;;;26.93;41.99
64078;BME280;51039;49.696;10.808;2022-08-21T13:58:48;98252.78;;;26.73;41.71
64078;BME280;51039;49.696;10.808;2022-08-21T14:01:55;98260.50;;;26.35;42.36
64078;BME280;51039;49.696;10.808;2022-08-21T14:04:36;98261.63;;;26.34;40.46
64078;BME280;51039;49.696;10.808;2022-08-21T14:07:19;98254.19;;;26.71;40.80
64078;BME280;51039;49.696;10.808;2022-08-21T14:09:49;98265.81;;;26.85;43.38
64078;BME280;51039;49.696;10.808;2022-08-21T14:12:16;98258.94;;;26.96;41.56
64078;BME280;51039;49.696;10.808;2022-08-21T14:14:48;98258.81;;;27.01;41.42